sensor_id;sensor_type;location;lat;lon;timestamp;P1;durP1;ratioP1;P2;durP2;ratioP2
24259;SDS011;12384;48.112;18.418;2023-01-05T00:01:44;16.00;;;14.70;;
24259;SDS011;12384;48.112;18.418;2023-01-05T00:04:14;15.20;;;13.90;;
24259;SDS011;12384;48.112;18.418;2023-01-05T00:06:44;15.30;;;14.03;;
24259;SDS011;12384;48.112;18.418;2023-01-05T00:09:14;17.20;;;15.63;;
24259;SDS011;12384;48.112;18.418;2023-01-05T00:11:43;15.50;;;14.10;;
24259;SDS011;12384;48.112;18.418;2023-01-05T00:14:44;16.40;;;15.00;;
24259;SDS011;12384;48.112;18.418;2023-01-05T00:17:29;16.67;;;15.17;;
24259;SDS011;12384;48.112;18.418;2023-01-05T00:20:18;15.87;;;14.47;;
24259;SDS011;12384;48.112;18.418;2023-01-05T00:23:05;16.43;;;15.10;;
24259;SDS011;12384;48.112;18.418;2023-01-05T00:25:35;18.93;;;17.17;;
24259;SDS011;12384;48.112;18.418;2023-01-05T00:28:05;17.73;;;15.83;;
24259;SDS011;12384;48.112;18.418;2023-01-05T00:30:36;17.80;;;16.30;;
24259;SDS011;12384;48.112;18.418;2023-01-05T00:33:06;20.27;;;18.10;;
24259;SDS011;12384;48.112;18.418;2023-01-05T00:35:37;19.57;;;17.83;;
24259;SDS011;12384;48.112;18.418;2023-01-05T00:38:06;20.93;;;18.77;;
24259;SDS011;12384;48.112;18.418;2023-01-05T00:40:37;23.10;;;21.10;;
24259;SDS011;12384;48.112;18.418;2023-01-05T00:43:05;25.33;;;22.93;;
24259;SDS011;12384;48.112;18.418;2023-01-05T00:45:34;25.17;;;22.77;;
24259;SDS011;12384;48.112;18.418;2023-01-05T00:48:02;24.30;;;22.03;;
24259;SDS011;12384;48.112;18.418;2023-01-05T00:50:31;24.43;;;22.23;;
24259;SDS011;12384;48.112;18.418;2023-01-05T00:53:01;23.63;;;21.43;;
24259;SDS011;12384;48.112;18.418;2023-01-05T00:55:30;23.70;;;21.60;;
24259;SDS011;12384;48.112;18.418;2023-01-05T00:57:58;24.50;;;22.30;;
24259;SDS011;12384;48.112;18.418;2023-01-05T01:00:26;24.50;;;22.10;;
24259;SDS011;12384;48.112;18.418;2023-01-05T01:02:55;22.70;;;20.37;;
24259;SDS011;12384;48.112;18.418;2023-01-05T01:05:23;22.17;;;20.17;;
24259;SDS011;12384;48.112;18.418;2023-01-05T01:07:52;22.70;;;20.63;;
24259;SDS011;12384;48.112;18.418;2023-01-05T01:10:21;24.27;;;22.03;;
24259;SDS011;12384;48.112;18.418;2023-01-05T01:12:51;22.20;;;20.30;;
24259;SDS011;12384;48.112;18.418;2023-01-05T01:15:20;21.83;;;19.83;;
24259;SDS011;12384;48.112;18.418;2023-01-05T01:17:49;23.33;;;21.13;;
24259;SDS011;12384;48.112;18.418;2023-01-05T01:20:17;21.83;;;19.90;;
24259;SDS011;12384;48.112;18.418;2023-01-05T01:22:46;21.53;;;19.60;;
24259;SDS011;12384;48.112;18.418;2023-01-05T01:25:14;22.77;;;20.60;;
24259;SDS011;12384;48.112;18.418;2023-01-05T01:27:44;21.73;;;19.83;;
24259;SDS011;12384;48.112;18.418;2023-01-05T01:30:13;22.40;;;20.40;;
24259;SDS011;12384;48.112;18.418;2023-01-05T01:32:42;22.53;;;20.60;;
24259;SDS011;12384;48.112;18.418;2023-01-05T01:35:11;23.07;;;20.87;;
24259;SDS011;12384;48.112;18.418;2023-01-05T01:37:39;21.13;;;19.23;;
24259;SDS011;12384;48.112;18.418;2023-01-05T01:40:08;21.83;;;19.73;;
24259;SDS011;12384;48.112;18.418;2023-01-05T01:42:39;21.93;;;19.83;;
24259;SDS011;12384;48.112;18.418;2023-01-05T01:45:13;21.77;;;19.50;;
24259;SDS011;12384;48.112;18.418;2023-01-05T01:47:46;21.10;;;19.20;;
24259;SDS011;12384;48.112;18.418;2023-01-05T01:50:20;21.50;;;19.60;;
24259;SDS011;12384;48.112;18.418;2023-01-05T01:52:56;21.40;;;19.40;;
24259;SDS011;12384;48.112;18.418;2023-01-05T01:55:28;20.37;;;18.53;;
24259;SDS011;12384;48.112;18.418;2023-01-05T01:57:58;20.47;;;18.07;;
24259;SDS011;12384;48.112;18.418;2023-01-05T02:00:29;20.37;;;18.17;;
24259;SDS011;12384;48.112;18.418;2023-01-05T02:02:57;19.50;;;17.67;;
24259;SDS011;12384;48.112;18.418;2023-01-05T02:05:28;19.63;;;17.83;;
24259;SDS011;12384;48.112;18.418;2023-01-05T02:07:58;19.43;;;17.63;;
24259;SDS011;12384;48.112;18.418;2023-01-05T02:10:33;20.80;;;18.80;;
24259;SDS011;12384;48.112;18.418;2023-01-05T02:13:13;19.20;;;17.50;;
24259;SDS011;12384;48.112;18.418;2023-01-05T02:16:00;20.77;;;18.87;;
24259;SDS011;12384;48.112;18.418;2023-01-05T02:18:45;20.17;;;18.37;;
24259;SDS011;12384;48.112;18.418;2023-01-05T02:21:32;19.50;;;17.90;;
24259;SDS011;12384;48.112;18.418;2023-01-05T02:27:26;18.37;;;16.67;;
24259;SDS011;12384;48.112;18.418;2023-01-05T02:33:45;17.63;;;16.03;;
24259;SDS011;12384;48.112;18.418;2023-01-05T02:36:27;17.47;;;15.80;;
24259;SDS011;12384;48.112;18.418;2023-01-05T02:39:03;18.60;;;16.07;;
24259;SDS011;12384;48.112;18.418;2023-01-05T02:41:38;16.57;;;15.17;;
24259;SDS011;12384;48.112;18.418;2023-01-05T02:44:14;16.37;;;14.97;;
24259;SDS011;12384;48.112;18.418;2023-01-05T02:46:57;17.00;;;15.40;;
24259;SDS011;12384;48.112;18.418;2023-01-05T02:49:28;15.77;;;14.37;;
24259;SDS011;12384;48.112;18.418;2023-01-05T02:51:59;15.87;;;14.43;;
24259;SDS011;12384;48.112;18.418;2023-01-05T02:54:30;15.93;;;14.53;;
24259;SDS011;12384;48.112;18.418;2023-01-05T02:57:06;18.10;;;16.33;;
24259;SDS011;12384;48.112;18.418;2023-01-05T02:59:40;17.27;;;15.67;;
24259;SDS011;12384;48.112;18.418;2023-01-05T03:02:12;16.53;;;15.03;;
24259;SDS011;12384;48.112;18.418;2023-01-05T03:04:51;14.67;;;13.27;;
24259;SDS011;12384;48.112;18.418;2023-01-05T03:07:23;14.80;;;13.50;;
24259;SDS011;12384;48.112;18.418;2023-01-05T03:09:54;14.27;;;12.97;;
24259;SDS011;12384;48.112;18.418;2023-01-05T03:12:24;14.30;;;13.00;;
24259;SDS011;12384;48.112;18.418;2023-01-05T03:15:15;13.53;;;12.33;;
24259;SDS011;12384;48.112;18.418;2023-01-05T03:17:47;12.67;;;11.43;;
24259;SDS011;12384;48.112;18.418;2023-01-05T03:20:20;12.93;;;11.60;;
24259;SDS011;12384;48.112;18.418;2023-01-05T03:22:53;14.03;;;12.53;;
24259;SDS011;12384;48.112;18.418;2023-01-05T03:25:40;14.37;;;12.97;;
24259;SDS011;12384;48.112;18.418;2023-01-05T03:28:31;12.77;;;11.63;;
24259;SDS011;12384;48.112;18.418;2023-01-05T03:31:23;11.27;;;10.27;;
24259;SDS011;12384;48.112;18.418;2023-01-05T03:34:19;10.73;;;9.73;;
24259;SDS011;12384;48.112;18.418;2023-01-05T03:37:16;10.70;;;9.77;;
24259;SDS011;12384;48.112;18.418;2023-01-05T03:39:48;9.77;;;8.97;;
24259;SDS011;12384;48.112;18.418;2023-01-05T03:42:18;9.47;;;8.67;;
24259;SDS011;12384;48.112;18.418;2023-01-05T03:44:47;9.70;;;8.80;;
24259;SDS011;12384;48.112;18.418;2023-01-05T03:47:17;9.50;;;8.70;;
24259;SDS011;12384;48.112;18.418;2023-01-05T03:49:46;9.13;;;8.33;;
24259;SDS011;12384;48.112;18.418;2023-01-05T03:52:16;9.53;;;8.70;;
24259;SDS011;12384;48.112;18.418;2023-01-05T03:54:45;8.40;;;7.70;;
24259;SDS011;12384;48.112;18.418;2023-01-05T03:57:13;8.33;;;7.60;;
24259;SDS011;12384;48.112;18.418;2023-01-05T03:59:42;7.83;;;7.23;;
24259;SDS011;12384;48.112;18.418;2023-01-05T04:02:12;8.27;;;7.67;;
24259;SDS011;12384;48.112;18.418;2023-01-05T04:04:41;8.30;;;7.60;;
24259;SDS011;12384;48.112;18.418;2023-01-05T04:07:09;7.47;;;6.87;;
24259;SDS011;12384;48.112;18.418;2023-01-05T04:09:40;6.67;;;6.17;;
24259;SDS011;12384;48.112;18.418;2023-01-05T04:12:09;6.90;;;6.40;;
24259;SDS011;12384;48.112;18.418;2023-01-05T04:14:41;6.50;;;6.10;;
24259;SDS011;12384;48.112;18.418;2023-01-05T04:17:10;6.50;;;5.97;;
24259;SDS011;12384;48.112;18.418;2023-01-05T04:19:38;5.93;;;5.47;;
24259;SDS011;12384;48.112;18.418;2023-01-05T04:22:07;5.57;;;5.07;;
24259;SDS011;12384;48.112;18.418;2023-01-05T04:24:36;5.77;;;5.37;;
24259;SDS011;12384;48.112;18.418;2023-01-05T04:27:06;6.37;;;5.97;;
24259;SDS011;12384;48.112;18.418;2023-01-05T04:29:34;4.47;;;4.17;;
24259;SDS011;12384;48.112;18.418;2023-01-05T04:32:03;3.97;;;3.67;;
24259;SDS011;12384;48.112;18.418;2023-01-05T04:34:32;4.10;;;3.80;;
24259;SDS011;12384;48.112;18.418;2023-01-05T04:37:00;4.97;;;3.90;;
24259;SDS011;12384;48.112;18.418;2023-01-05T04:39:30;4.30;;;4.00;;
24259;SDS011;12384;48.112;18.418;2023-01-05T04:41:59;4.20;;;3.80;;
24259;SDS011;12384;48.112;18.418;2023-01-05T04:44:30;4.50;;;4.20;;
24259;SDS011;12384;48.112;18.418;2023-01-05T04:47:02;4.90;;;4.50;;
24259;SDS011;12384;48.112;18.418;2023-01-05T04:49:32;5.67;;;5.17;;
24259;SDS011;12384;48.112;18.418;2023-01-05T04:52:00;5.07;;;4.67;;
24259;SDS011;12384;48.112;18.418;2023-01-05T04:54:32;5.07;;;4.67;;
24259;SDS011;12384;48.112;18.418;2023-01-05T04:57:03;4.80;;;4.50;;
24259;SDS011;12384;48.112;18.418;2023-01-05T04:59:33;4.90;;;4.60;;
24259;SDS011;12384;48.112;18.418;2023-01-05T05:02:02;4.57;;;4.27;;
24259;SDS011;12384;48.112;18.418;2023-01-05T05:04:32;5.17;;;4.67;;
24259;SDS011;12384;48.112;18.418;2023-01-05T05:07:02;5.20;;;4.80;;
24259;SDS011;12384;48.112;18.418;2023-01-05T05:09:32;4.47;;;4.20;;
24259;SDS011;12384;48.112;18.418;2023-01-05T05:12:01;5.03;;;4.70;;
24259;SDS011;12384;48.112;18.418;2023-01-05T05:14:31;4.60;;;4.30;;
24259;SDS011;12384;48.112;18.418;2023-01-05T05:17:00;4.30;;;4.00;;
24259;SDS011;12384;48.112;18.418;2023-01-05T05:19:29;4.63;;;4.23;;
24259;SDS011;12384;48.112;18.418;2023-01-05T05:21:58;4.90;;;4.60;;
24259;SDS011;12384;48.112;18.418;2023-01-05T05:24:27;5.50;;;5.10;;
24259;SDS011;12384;48.112;18.418;2023-01-05T05:26:55;5.70;;;5.30;;
24259;SDS011;12384;48.112;18.418;2023-01-05T05:29:23;5.60;;;5.20;;
24259;SDS011;12384;48.112;18.418;2023-01-05T05:31:52;9.90;;;9.13;;
24259;SDS011;12384;48.112;18.418;2023-01-05T05:34:22;9.50;;;8.90;;
24259;SDS011;12384;48.112;18.418;2023-01-05T05:36:50;9.40;;;8.80;;
24259;SDS011;12384;48.112;18.418;2023-01-05T05:39:19;8.07;;;7.47;;
24259;SDS011;12384;48.112;18.418;2023-01-05T05:41:47;7.57;;;6.87;;
24259;SDS011;12384;48.112;18.418;2023-01-05T05:44:15;7.60;;;7.10;;
24259;SDS011;12384;48.112;18.418;2023-01-05T05:46:44;9.10;;;8.30;;
24259;SDS011;12384;48.112;18.418;2023-01-05T05:49:12;8.30;;;7.70;;
24259;SDS011;12384;48.112;18.418;2023-01-05T05:51:42;8.20;;;7.70;;
24259;SDS011;12384;48.112;18.418;2023-01-05T05:54:11;8.23;;;7.63;;
24259;SDS011;12384;48.112;18.418;2023-01-05T05:56:39;7.33;;;6.83;;
24259;SDS011;12384;48.112;18.418;2023-01-05T05:59:08;7.40;;;6.80;;
24259;SDS011;12384;48.112;18.418;2023-01-05T06:01:36;8.00;;;7.40;;
24259;SDS011;12384;48.112;18.418;2023-01-05T06:04:04;8.07;;;7.37;;
24259;SDS011;12384;48.112;18.418;2023-01-05T06:06:33;7.80;;;7.20;;
24259;SDS011;12384;48.112;18.418;2023-01-05T06:09:02;8.80;;;8.00;;
24259;SDS011;12384;48.112;18.418;2023-01-05T06:11:31;8.00;;;7.30;;
24259;SDS011;12384;48.112;18.418;2023-01-05T06:14:00;9.00;;;8.20;;
24259;SDS011;12384;48.112;18.418;2023-01-05T06:16:30;8.93;;;8.23;;
24259;SDS011;12384;48.112;18.418;2023-01-05T06:18:58;8.30;;;7.70;;
24259;SDS011;12384;48.112;18.418;2023-01-05T06:21:26;8.73;;;8.03;;
24259;SDS011;12384;48.112;18.418;2023-01-05T06:23:55;8.97;;;8.17;;
24259;SDS011;12384;48.112;18.418;2023-01-05T06:26:24;9.93;;;9.00;;
24259;SDS011;12384;48.112;18.418;2023-01-05T06:28:53;9.53;;;8.63;;
24259;SDS011;12384;48.112;18.418;2023-01-05T06:31:21;10.33;;;9.43;;
24259;SDS011;12384;48.112;18.418;2023-01-05T06:33:49;9.70;;;8.90;;
24259;SDS011;12384;48.112;18.418;2023-01-05T06:36:18;9.70;;;8.90;;
24259;SDS011;12384;48.112;18.418;2023-01-05T06:38:46;8.73;;;8.13;;
24259;SDS011;12384;48.112;18.418;2023-01-05T06:41:15;9.30;;;8.53;;
24259;SDS011;12384;48.112;18.418;2023-01-05T06:43:44;8.83;;;8.13;;
24259;SDS011;12384;48.112;18.418;2023-01-05T06:46:13;8.80;;;8.20;;
24259;SDS011;12384;48.112;18.418;2023-01-05T06:48:41;9.27;;;8.67;;
24259;SDS011;12384;48.112;18.418;2023-01-05T06:51:09;8.50;;;7.90;;
24259;SDS011;12384;48.112;18.418;2023-01-05T06:53:38;8.63;;;7.93;;
24259;SDS011;12384;48.112;18.418;2023-01-05T06:56:06;8.60;;;7.90;;
24259;SDS011;12384;48.112;18.418;2023-01-05T06:58:35;8.27;;;7.67;;
24259;SDS011;12384;48.112;18.418;2023-01-05T07:01:04;7.73;;;7.13;;
24259;SDS011;12384;48.112;18.418;2023-01-05T07:03:33;7.50;;;7.00;;
24259;SDS011;12384;48.112;18.418;2023-01-05T07:06:01;7.97;;;7.37;;
24259;SDS011;12384;48.112;18.418;2023-01-05T07:08:38;6.90;;;6.40;;
24259;SDS011;12384;48.112;18.418;2023-01-05T07:11:07;6.80;;;6.20;;
24259;SDS011;12384;48.112;18.418;2023-01-05T07:13:35;7.20;;;6.53;;
24259;SDS011;12384;48.112;18.418;2023-01-05T07:16:05;7.10;;;6.40;;
24259;SDS011;12384;48.112;18.418;2023-01-05T07:18:34;7.20;;;6.60;;
24259;SDS011;12384;48.112;18.418;2023-01-05T07:21:02;6.40;;;5.93;;
24259;SDS011;12384;48.112;18.418;2023-01-05T07:23:30;6.07;;;5.67;;
24259;SDS011;12384;48.112;18.418;2023-01-05T07:25:59;6.17;;;5.77;;
24259;SDS011;12384;48.112;18.418;2023-01-05T07:28:27;6.20;;;5.70;;
24259;SDS011;12384;48.112;18.418;2023-01-05T07:30:56;6.70;;;6.20;;
24259;SDS011;12384;48.112;18.418;2023-01-05T07:33:25;6.63;;;6.13;;
24259;SDS011;12384;48.112;18.418;2023-01-05T07:35:54;7.30;;;6.70;;
24259;SDS011;12384;48.112;18.418;2023-01-05T07:38:22;7.53;;;6.93;;
24259;SDS011;12384;48.112;18.418;2023-01-05T07:40:50;8.33;;;7.63;;
24259;SDS011;12384;48.112;18.418;2023-01-05T07:43:19;8.70;;;8.00;;
24259;SDS011;12384;48.112;18.418;2023-01-05T07:45:47;9.10;;;8.37;;
24259;SDS011;12384;48.112;18.418;2023-01-05T07:48:16;8.33;;;7.73;;
24259;SDS011;12384;48.112;18.418;2023-01-05T07:50:50;9.20;;;8.50;;
24259;SDS011;12384;48.112;18.418;2023-01-05T07:53:18;9.00;;;8.30;;
24259;SDS011;12384;48.112;18.418;2023-01-05T07:55:56;9.07;;;8.37;;
24259;SDS011;12384;48.112;18.418;2023-01-05T07:58:25;9.53;;;8.67;;
24259;SDS011;12384;48.112;18.418;2023-01-05T08:00:55;9.13;;;8.43;;
24259;SDS011;12384;48.112;18.418;2023-01-05T08:03:24;9.30;;;8.40;;
24259;SDS011;12384;48.112;18.418;2023-01-05T08:05:53;10.13;;;9.40;;
24259;SDS011;12384;48.112;18.418;2023-01-05T08:08:22;9.20;;;8.50;;
24259;SDS011;12384;48.112;18.418;2023-01-05T08:10:50;10.10;;;9.30;;
24259;SDS011;12384;48.112;18.418;2023-01-05T08:13:18;9.30;;;8.60;;
24259;SDS011;12384;48.112;18.418;2023-01-05T08:16:05;9.80;;;9.00;;
24259;SDS011;12384;48.112;18.418;2023-01-05T08:18:34;9.50;;;8.70;;
24259;SDS011;12384;48.112;18.418;2023-01-05T08:21:04;9.50;;;8.80;;
24259;SDS011;12384;48.112;18.418;2023-01-05T08:23:34;9.63;;;8.83;;
24259;SDS011;12384;48.112;18.418;2023-01-05T08:26:04;8.67;;;8.07;;
24259;SDS011;12384;48.112;18.418;2023-01-05T08:28:34;9.27;;;8.57;;
24259;SDS011;12384;48.112;18.418;2023-01-05T08:31:03;8.93;;;8.23;;
24259;SDS011;12384;48.112;18.418;2023-01-05T08:33:33;10.03;;;9.23;;
24259;SDS011;12384;48.112;18.418;2023-01-05T08:36:07;10.00;;;9.20;;
24259;SDS011;12384;48.112;18.418;2023-01-05T08:38:37;10.00;;;9.20;;
24259;SDS011;12384;48.112;18.418;2023-01-05T08:41:15;9.63;;;8.93;;
24259;SDS011;12384;48.112;18.418;2023-01-05T08:43:47;9.50;;;8.70;;
24259;SDS011;12384;48.112;18.418;2023-01-05T08:46:17;9.97;;;9.17;;
24259;SDS011;12384;48.112;18.418;2023-01-05T08:48:48;10.13;;;9.27;;
24259;SDS011;12384;48.112;18.418;2023-01-05T08:51:18;10.47;;;9.67;;
24259;SDS011;12384;48.112;18.418;2023-01-05T08:53:47;8.03;;;7.40;;
24259;SDS011;12384;48.112;18.418;2023-01-05T08:56:16;8.70;;;8.00;;
24259;SDS011;12384;48.112;18.418;2023-01-05T08:58:45;8.93;;;8.23;;
24259;SDS011;12384;48.112;18.418;2023-01-05T09:01:14;8.77;;;8.13;;
24259;SDS011;12384;48.112;18.418;2023-01-05T09:03:44;10.20;;;9.30;;
24259;SDS011;12384;48.112;18.418;2023-01-05T09:06:12;10.27;;;9.47;;
24259;SDS011;12384;48.112;18.418;2023-01-05T09:08:42;11.33;;;10.53;;
24259;SDS011;12384;48.112;18.418;2023-01-05T09:11:13;11.00;;;10.20;;
24259;SDS011;12384;48.112;18.418;2023-01-05T09:13:44;12.13;;;11.13;;
24259;SDS011;12384;48.112;18.418;2023-01-05T09:16:14;11.70;;;10.83;;
24259;SDS011;12384;48.112;18.418;2023-01-05T09:19:05;12.80;;;11.67;;
24259;SDS011;12384;48.112;18.418;2023-01-05T09:21:33;12.23;;;11.33;;
24259;SDS011;12384;48.112;18.418;2023-01-05T09:24:06;11.57;;;10.73;;
24259;SDS011;12384;48.112;18.418;2023-01-05T09:26:37;12.47;;;11.47;;
24259;SDS011;12384;48.112;18.418;2023-01-05T09:29:06;12.77;;;11.73;;
24259;SDS011;12384;48.112;18.418;2023-01-05T09:31:34;12.10;;;11.20;;
24259;SDS011;12384;48.112;18.418;2023-01-05T09:34:03;11.20;;;10.40;;
24259;SDS011;12384;48.112;18.418;2023-01-05T09:36:31;11.57;;;10.77;;
24259;SDS011;12384;48.112;18.418;2023-01-05T09:39:00;11.03;;;10.13;;
24259;SDS011;12384;48.112;18.418;2023-01-05T09:41:32;11.63;;;10.73;;
24259;SDS011;12384;48.112;18.418;2023-01-05T09:44:03;12.67;;;11.73;;
24259;SDS011;12384;48.112;18.418;2023-01-05T09:46:35;11.80;;;10.83;;
24259;SDS011;12384;48.112;18.418;2023-01-05T09:49:10;11.47;;;10.67;;
24259;SDS011;12384;48.112;18.418;2023-01-05T09:51:41;11.67;;;10.77;;
24259;SDS011;12384;48.112;18.418;2023-01-05T09:54:12;11.57;;;10.67;;
24259;SDS011;12384;48.112;18.418;2023-01-05T09:56:45;11.53;;;10.63;;
24259;SDS011;12384;48.112;18.418;2023-01-05T09:59:35;11.70;;;10.93;;
24259;SDS011;12384;48.112;18.418;2023-01-05T10:02:08;11.53;;;10.67;;
24259;SDS011;12384;48.112;18.418;2023-01-05T10:04:44;11.60;;;10.70;;
24259;SDS011;12384;48.112;18.418;2023-01-05T10:07:17;10.90;;;10.20;;
24259;SDS011;12384;48.112;18.418;2023-01-05T10:09:52;12.13;;;11.23;;
24259;SDS011;12384;48.112;18.418;2023-01-05T10:12:26;11.43;;;10.63;;
24259;SDS011;12384;48.112;18.418;2023-01-05T10:15:17;11.43;;;10.63;;
24259;SDS011;12384;48.112;18.418;2023-01-05T10:17:47;10.90;;;10.20;;
24259;SDS011;12384;48.112;18.418;2023-01-05T10:20:16;10.40;;;9.60;;
24259;SDS011;12384;48.112;18.418;2023-01-05T10:22:52;9.83;;;9.13;;
24259;SDS011;12384;48.112;18.418;2023-01-05T10:25:31;9.23;;;8.43;;
24259;SDS011;12384;48.112;18.418;2023-01-05T10:28:11;8.37;;;7.87;;
24259;SDS011;12384;48.112;18.418;2023-01-05T10:30:56;9.33;;;8.67;;
24259;SDS011;12384;48.112;18.418;2023-01-05T10:33:31;8.83;;;8.23;;
24259;SDS011;12384;48.112;18.418;2023-01-05T10:36:24;8.03;;;7.53;;
24259;SDS011;12384;48.112;18.418;2023-01-05T10:39:28;8.27;;;7.77;;
24259;SDS011;12384;48.112;18.418;2023-01-05T10:42:12;7.97;;;7.37;;
24259;SDS011;12384;48.112;18.418;2023-01-05T10:44:55;8.27;;;7.57;;
24259;SDS011;12384;48.112;18.418;2023-01-05T10:47:29;8.30;;;7.60;;
24259;SDS011;12384;48.112;18.418;2023-01-05T10:50:02;7.90;;;7.30;;
24259;SDS011;12384;48.112;18.418;2023-01-05T10:52:44;7.77;;;7.17;;
24259;SDS011;12384;48.112;18.418;2023-01-05T10:55:14;7.83;;;7.10;;
24259;SDS011;12384;48.112;18.418;2023-01-05T10:57:44;7.70;;;7.10;;
24259;SDS011;12384;48.112;18.418;2023-01-05T11:00:15;6.77;;;6.30;;
24259;SDS011;12384;48.112;18.418;2023-01-05T11:02:46;6.97;;;6.47;;
24259;SDS011;12384;48.112;18.418;2023-01-05T11:05:21;7.07;;;6.53;;
24259;SDS011;12384;48.112;18.418;2023-01-05T11:07:54;6.53;;;6.03;;
24259;SDS011;12384;48.112;18.418;2023-01-05T11:10:28;6.33;;;5.83;;
24259;SDS011;12384;48.112;18.418;2023-01-05T11:13:03;6.03;;;5.50;;
24259;SDS011;12384;48.112;18.418;2023-01-05T11:15:39;6.00;;;5.50;;
24259;SDS011;12384;48.112;18.418;2023-01-05T11:18:24;5.80;;;5.20;;
24259;SDS011;12384;48.112;18.418;2023-01-05T11:21:12;5.90;;;5.50;;
24259;SDS011;12384;48.112;18.418;2023-01-05T11:23:43;6.00;;;5.50;;
24259;SDS011;12384;48.112;18.418;2023-01-05T11:26:29;5.40;;;5.00;;
24259;SDS011;12384;48.112;18.418;2023-01-05T11:29:03;6.00;;;5.50;;
24259;SDS011;12384;48.112;18.418;2023-01-05T11:31:44;5.93;;;5.43;;
24259;SDS011;12384;48.112;18.418;2023-01-05T11:34:16;6.27;;;5.77;;
24259;SDS011;12384;48.112;18.418;2023-01-05T11:37:15;6.30;;;5.90;;
24259;SDS011;12384;48.112;18.418;2023-01-05T11:39:51;6.40;;;5.90;;
24259;SDS011;12384;48.112;18.418;2023-01-05T11:42:28;6.33;;;5.83;;
24259;SDS011;12384;48.112;18.418;2023-01-05T11:44:59;6.37;;;5.97;;
24259;SDS011;12384;48.112;18.418;2023-01-05T11:47:32;6.77;;;6.27;;
24259;SDS011;12384;48.112;18.418;2023-01-05T11:50:18;6.90;;;6.30;;
24259;SDS011;12384;48.112;18.418;2023-01-05T11:52:51;6.87;;;6.37;;
24259;SDS011;12384;48.112;18.418;2023-01-05T11:55:27;6.17;;;5.77;;
24259;SDS011;12384;48.112;18.418;2023-01-05T11:58:13;5.90;;;5.50;;
24259;SDS011;12384;48.112;18.418;2023-01-05T12:00:52;5.47;;;5.00;;
24259;SDS011;12384;48.112;18.418;2023-01-05T12:09:46;6.47;;;5.97;;
24259;SDS011;12384;48.112;18.418;2023-01-05T12:12:26;6.87;;;6.37;;
24259;SDS011;12384;48.112;18.418;2023-01-05T12:15:30;6.43;;;5.93;;
24259;SDS011;12384;48.112;18.418;2023-01-05T12:18:41;6.60;;;6.20;;
24259;SDS011;12384;48.112;18.418;2023-01-05T12:21:26;6.23;;;5.73;;
24259;SDS011;12384;48.112;18.418;2023-01-05T12:24:06;5.80;;;5.40;;
24259;SDS011;12384;48.112;18.418;2023-01-05T12:26:53;5.80;;;5.40;;
24259;SDS011;12384;48.112;18.418;2023-01-05T12:29:38;6.13;;;5.70;;
24259;SDS011;12384;48.112;18.418;2023-01-05T12:32:43;6.00;;;5.50;;
24259;SDS011;12384;48.112;18.418;2023-01-05T12:35:48;5.23;;;4.90;;
24259;SDS011;12384;48.112;18.418;2023-01-05T12:38:38;6.83;;;5.63;;
24259;SDS011;12384;48.112;18.418;2023-01-05T12:47:25;5.30;;;4.80;;
24259;SDS011;12384;48.112;18.418;2023-01-05T12:50:13;5.03;;;4.73;;
24259;SDS011;12384;48.112;18.418;2023-01-05T12:52:50;5.70;;;5.13;;
24259;SDS011;12384;48.112;18.418;2023-01-05T12:55:27;4.60;;;4.30;;
24259;SDS011;12384;48.112;18.418;2023-01-05T12:58:00;5.63;;;4.87;;
24259;SDS011;12384;48.112;18.418;2023-01-05T13:00:36;5.23;;;4.60;;
24259;SDS011;12384;48.112;18.418;2023-01-05T13:03:14;5.80;;;5.30;;
24259;SDS011;12384;48.112;18.418;2023-01-05T13:05:50;6.10;;;5.70;;
24259;SDS011;12384;48.112;18.418;2023-01-05T13:08:24;5.80;;;5.33;;
24259;SDS011;12384;48.112;18.418;2023-01-05T13:11:00;5.83;;;5.30;;
24259;SDS011;12384;48.112;18.418;2023-01-05T13:13:33;5.90;;;5.40;;
24259;SDS011;12384;48.112;18.418;2023-01-05T13:16:07;6.07;;;5.63;;
24259;SDS011;12384;48.112;18.418;2023-01-05T13:18:43;5.70;;;5.30;;
24259;SDS011;12384;48.112;18.418;2023-01-05T13:21:17;7.00;;;6.40;;
24259;SDS011;12384;48.112;18.418;2023-01-05T13:23:49;6.40;;;6.00;;
24259;SDS011;12384;48.112;18.418;2023-01-05T13:26:21;6.80;;;6.30;;
24259;SDS011;12384;48.112;18.418;2023-01-05T13:28:50;6.90;;;6.40;;
24259;SDS011;12384;48.112;18.418;2023-01-05T13:34:19;6.70;;;6.20;;
24259;SDS011;12384;48.112;18.418;2023-01-05T13:37:09;6.87;;;6.37;;
24259;SDS011;12384;48.112;18.418;2023-01-05T13:40:23;6.77;;;6.37;;
24259;SDS011;12384;48.112;18.418;2023-01-05T13:43:15;6.90;;;6.43;;
24259;SDS011;12384;48.112;18.418;2023-01-05T13:48:56;7.03;;;6.53;;
24259;SDS011;12384;48.112;18.418;2023-01-05T13:51:54;6.10;;;5.60;;
24259;SDS011;12384;48.112;18.418;2023-01-05T13:54:28;6.70;;;6.03;;
24259;SDS011;12384;48.112;18.418;2023-01-05T13:57:20;6.43;;;5.93;;
24259;SDS011;12384;48.112;18.418;2023-01-05T13:59:53;6.30;;;5.70;;
24259;SDS011;12384;48.112;18.418;2023-01-05T14:02:39;6.53;;;6.07;;
24259;SDS011;12384;48.112;18.418;2023-01-05T14:05:14;6.20;;;5.57;;
24259;SDS011;12384;48.112;18.418;2023-01-05T14:07:49;6.43;;;5.93;;
24259;SDS011;12384;48.112;18.418;2023-01-05T14:10:19;6.53;;;6.03;;
24259;SDS011;12384;48.112;18.418;2023-01-05T14:12:50;6.50;;;6.00;;
24259;SDS011;12384;48.112;18.418;2023-01-05T14:15:30;6.53;;;5.97;;
24259;SDS011;12384;48.112;18.418;2023-01-05T14:18:04;6.90;;;6.30;;
24259;SDS011;12384;48.112;18.418;2023-01-05T14:20:35;7.43;;;6.73;;
24259;SDS011;12384;48.112;18.418;2023-01-05T14:26:12;7.00;;;6.37;;
24259;SDS011;12384;48.112;18.418;2023-01-05T14:28:44;7.70;;;7.10;;
24259;SDS011;12384;48.112;18.418;2023-01-05T14:34:18;7.03;;;6.50;;
24259;SDS011;12384;48.112;18.418;2023-01-05T14:36:50;8.40;;;7.63;;
24259;SDS011;12384;48.112;18.418;2023-01-05T14:39:35;8.00;;;7.40;;
24259;SDS011;12384;48.112;18.418;2023-01-05T14:42:15;8.00;;;7.50;;
24259;SDS011;12384;48.112;18.418;2023-01-05T14:44:50;9.90;;;8.37;;
24259;SDS011;12384;48.112;18.418;2023-01-05T14:47:37;8.60;;;7.90;;
24259;SDS011;12384;48.112;18.418;2023-01-05T14:52:56;8.80;;;8.00;;
24259;SDS011;12384;48.112;18.418;2023-01-05T14:55:27;7.67;;;7.07;;
24259;SDS011;12384;48.112;18.418;2023-01-05T14:58:09;8.13;;;7.40;;
24259;SDS011;12384;48.112;18.418;2023-01-05T15:00:44;8.67;;;7.40;;
24259;SDS011;12384;48.112;18.418;2023-01-05T15:03:32;8.67;;;7.77;;
24259;SDS011;12384;48.112;18.418;2023-01-05T15:06:05;9.70;;;8.20;;
24259;SDS011;12384;48.112;18.418;2023-01-05T15:12:05;8.30;;;7.60;;
24259;SDS011;12384;48.112;18.418;2023-01-05T15:17:45;7.93;;;7.13;;
24259;SDS011;12384;48.112;18.418;2023-01-05T15:20:55;7.63;;;7.03;;
24259;SDS011;12384;48.112;18.418;2023-01-05T15:27:04;7.63;;;6.93;;
24259;SDS011;12384;48.112;18.418;2023-01-05T15:32:48;8.63;;;7.00;;
24259;SDS011;12384;48.112;18.418;2023-01-05T15:35:23;7.40;;;6.70;;
24259;SDS011;12384;48.112;18.418;2023-01-05T15:38:00;7.50;;;6.90;;
24259;SDS011;12384;48.112;18.418;2023-01-05T15:40:45;7.90;;;7.20;;
24259;SDS011;12384;48.112;18.418;2023-01-05T15:43:15;7.27;;;6.60;;
24259;SDS011;12384;48.112;18.418;2023-01-05T15:45:47;7.53;;;6.70;;
24259;SDS011;12384;48.112;18.418;2023-01-05T15:48:22;7.43;;;6.80;;
24259;SDS011;12384;48.112;18.418;2023-01-05T15:50:55;7.13;;;6.43;;
24259;SDS011;12384;48.112;18.418;2023-01-05T15:53:27;7.47;;;6.67;;